Time;durP1;ratioP1;P1;durP2;ratioP2;P2;SDS_P1;SDS_P2;PMS_P1;PMS_P2;Temp;Humidity;BMP_temperature;BMP_pressure;BME280_temperature;BME280_humidity;BME280_pressure;Samples;Min_cycle;Max_cycle;Signal;HPM_P1;HPM_P2
2023/09/04 00:00:09;;;;;;;4.20;3.70;;;15.90;99.90;;;;;;5080167;28;20448;-82
2023/09/04 00:02:37;;;;;;;6.27;3.53;;;15.90;99.90;;;;;;5096323;28;20473;-81
2023/09/04 00:05:04;;;;;;;5.23;3.50;;;15.90;99.90;;;;;;5090102;28;20549;-80
2023/09/04 00:07:31;;;;;;;4.40;3.40;;;15.90;99.90;;;;;;5077047;28;20461;-82
2023/09/04 00:09:58;;;;;;;3.90;3.17;;;15.80;99.90;;;;;;5087670;28;20475;-84
2023/09/04 00:12:25;;;;;;;4.60;4.20;;;15.80;99.90;;;;;;5092027;28;21004;-82
2023/09/04 00:14:52;;;;;;;5.83;4.37;;;15.80;99.90;;;;;;5095934;28;20447;-82
2023/09/04 00:17:20;;;;;;;4.20;3.80;;;15.80;99.90;;;;;;5080112;28;20544;-82
2023/09/04 00:19:48;;;;;;;5.70;3.53;;;15.70;99.90;;;;;;5085601;28;20458;-81
2023/09/04 00:22:15;;;;;;;3.80;3.40;;;15.70;99.90;;;;;;5100476;28;20472;-81
2023/09/04 00:24:42;;;;;;;5.63;3.93;;;15.70;99.90;;;;;;5102002;28;20938;-82
2023/09/04 00:27:08;;;;;;;3.93;3.63;;;15.60;99.90;;;;;;5099692;28;20460;-81
2023/09/04 00:29:35;;;;;;;4.70;3.70;;;15.60;99.90;;;;;;5086067;28;20458;-81
2023/09/04 00:32:02;;;;;;;5.60;3.80;;;15.60;99.90;;;;;;5084097;28;20486;-80
2023/09/04 00:34:29;;;;;;;4.80;3.70;;;15.60;99.90;;;;;;5081365;28;20867;-80
2023/09/04 00:36:57;;;;;;;5.30;4.10;;;15.60;99.90;;;;;;5080029;28;20480;-80
2023/09/04 00:39:24;;;;;;;3.33;3.03;;;15.60;99.90;;;;;;5072488;28;20461;-82
2023/09/04 00:41:51;;;;;;;4.13;3.27;;;15.50;99.90;;;;;;5080042;28;20552;-82
2023/09/04 00:44:18;;;;;;;6.63;3.97;;;15.50;99.90;;;;;;5088044;28;20515;-80
2023/09/04 00:46:45;;;;;;;4.83;4.33;;;15.50;99.90;;;;;;5095958;28;20539;-82
2023/09/04 00:49:13;;;;;;;3.90;3.23;;;15.50;99.90;;;;;;5100393;28;20463;-82
2023/09/04 00:51:40;;;;;;;4.23;3.80;;;15.50;99.90;;;;;;5100758;28;20494;-82
2023/09/04 00:54:09;;;;;;;5.40;3.60;;;15.50;99.90;;;;;;5092530;28;20537;-80
2023/09/04 00:56:36;;;;;;;5.33;4.00;;;15.40;99.90;;;;;;5082184;28;20537;-81
2023/09/04 00:59:03;;;;;;;4.27;3.60;;;15.40;99.90;;;;;;5087464;28;20463;-82
2023/09/04 01:01:31;;;;;;;5.20;4.63;;;15.40;99.90;;;;;;5094751;28;20540;-82
2023/09/04 01:03:57;;;;;;;3.70;3.13;;;15.40;99.90;;;;;;5090195;28;20461;-81
2023/09/04 01:06:24;;;;;;;4.70;3.73;;;15.40;99.90;;;;;;5081121;28;20463;-82
2023/09/04 01:08:52;;;;;;;3.87;3.50;;;15.40;99.90;;;;;;5094150;28;21033;-82
2023/09/04 01:11:31;;;;;;;4.20;3.80;;;15.40;99.90;;;;;;5098253;28;20565;-81
2023/09/04 01:13:58;;;;;;;4.53;4.13;;;15.30;99.90;;;;;;5095891;28;20534;-81
2023/09/04 01:16:25;;;;;;;6.27;3.20;;;15.30;99.90;;;;;;5079043;28;20537;-80
2023/09/04 01:18:52;;;;;;;4.50;4.10;;;15.30;99.90;;;;;;5079887;28;20533;-81
2023/09/04 01:21:20;;;;;;;5.30;4.30;;;15.30;99.90;;;;;;5079246;28;20470;-81
2023/09/04 01:23:47;;;;;;;4.60;4.00;;;15.30;99.90;;;;;;5079553;28;20970;-81
2023/09/04 01:26:16;;;;;;;4.47;3.60;;;15.30;99.90;;;;;;5080838;28;20443;-82
2023/09/04 01:28:55;;;;;;;4.33;3.87;;;15.30;99.90;;;;;;5099659;28;20450;-82
2023/09/04 01:31:25;;;;;;;4.10;3.63;;;15.30;99.90;;;;;;5059428;28;20567;-82
2023/09/04 01:33:59;;;;;;;4.93;3.67;;;15.20;99.90;;;;;;5075994;28;20507;-82
2023/09/04 01:36:31;;;;;;;5.90;4.43;;;15.20;99.90;;;;;;5062958;28;20441;-81
2023/09/04 01:38:58;;;;;;;4.40;3.93;;;15.20;99.90;;;;;;5079747;28;20459;-82
2023/09/04 01:41:24;;;;;;;4.23;3.40;;;15.20;99.90;;;;;;5088780;28;20551;-82
2023/09/04 01:43:51;;;;;;;4.33;3.90;;;15.20;99.90;;;;;;5080252;28;20520;-82
2023/09/04 01:46:18;;;;;;;4.40;3.60;;;15.20;99.90;;;;;;5078933;28;20450;-80
2023/09/04 01:48:45;;;;;;;4.50;3.00;;;15.20;99.90;;;;;;5090084;28;20448;-82
2023/09/04 01:51:11;;;;;;;4.37;3.37;;;15.20;99.90;;;;;;5085422;28;20482;-82
2023/09/04 01:53:40;;;;;;;4.80;3.57;;;15.20;99.90;;;;;;5087513;28;20455;-80
2023/09/04 01:56:07;;;;;;;4.80;3.70;;;15.20;99.90;;;;;;5076736;28;20465;-81
2023/09/04 01:58:33;;;;;;;4.20;3.70;;;15.20;99.90;;;;;;5079208;28;20535;-81
2023/09/04 02:01:00;;;;;;;4.53;3.00;;;15.20;99.90;;;;;;5072994;28;20483;-81
2023/09/04 02:03:27;;;;;;;4.73;3.63;;;15.10;99.90;;;;;;5069521;28;20483;-81
2023/09/04 02:05:54;;;;;;;4.13;3.67;;;15.10;99.90;;;;;;5078732;28;20455;-81
2023/09/04 02:08:21;;;;;;;4.07;3.27;;;15.10;99.90;;;;;;5083411;28;21021;-82
2023/09/04 02:10:50;;;;;;;4.00;3.50;;;15.00;99.90;;;;;;5082691;28;20479;-81
2023/09/04 02:13:17;;;;;;;5.17;4.40;;;15.00;99.90;;;;;;5079247;28;20459;-81
2023/09/04 02:15:44;;;;;;;4.37;3.60;;;15.00;99.90;;;;;;5078220;28;20530;-81
2023/09/04 02:18:10;;;;;;;7.37;4.10;;;15.00;99.90;;;;;;5079176;28;20532;-82
2023/09/04 02:20:37;;;;;;;4.10;3.70;;;15.00;99.90;;;;;;5078520;28;20972;-81
2023/09/04 02:23:04;;;;;;;3.90;3.40;;;15.00;99.90;;;;;;5078818;28;20470;-82
2023/09/04 02:25:31;;;;;;;4.10;3.70;;;14.90;99.90;;;;;;5077882;28;20522;-81
2023/09/04 02:27:59;;;;;;;4.70;3.00;;;14.90;99.90;;;;;;5079168;28;20442;-81
2023/09/04 02:30:26;;;;;;;4.67;3.73;;;14.90;99.90;;;;;;5078716;28;20883;-80
2023/09/04 02:32:58;;;;;;;4.33;3.40;;;14.90;99.90;;;;;;5078645;28;20914;-81
2023/09/04 02:35:25;;;;;;;4.10;3.57;;;14.90;99.90;;;;;;5077727;28;20453;-82
2023/09/04 02:37:52;;;;;;;4.50;3.83;;;14.80;99.90;;;;;;5078234;28;20546;-82
2023/09/04 02:40:19;;;;;;;4.10;3.73;;;14.70;99.90;;;;;;5078784;28;20449;-81
2023/09/04 02:42:45;;;;;;;3.73;3.43;;;14.70;99.90;;;;;;5079150;28;20845;-82
2023/09/04 02:45:14;;;;;;;4.43;4.03;;;14.70;99.90;;;;;;5077957;28;20447;-79
2023/09/04 02:47:40;;;;;;;5.40;3.97;;;14.70;99.90;;;;;;5077750;28;20558;-81
2023/09/04 02:50:08;;;;;;;4.43;4.03;;;14.70;99.90;;;;;;5077590;28;20451;-81
2023/09/04 02:52:35;;;;;;;4.73;4.33;;;14.70;99.90;;;;;;5078181;28;20501;-81
2023/09/04 02:55:02;;;;;;;4.90;4.20;;;14.70;99.90;;;;;;5078688;28;20443;-82
2023/09/04 02:57:30;;;;;;;5.10;4.07;;;14.70;99.90;;;;;;5077761;28;20525;-81
2023/09/04 02:59:57;;;;;;;7.30;4.37;;;14.70;99.90;;;;;;5083849;28;20451;-80
2023/09/04 03:02:25;;;;;;;5.17;4.00;;;14.70;99.90;;;;;;5082589;28;20478;-80
2023/09/04 03:04:56;;;;;;;4.80;3.70;;;14.70;99.90;;;;;;5085961;28;20546;-81
2023/09/04 03:07:26;;;;;;;5.90;4.30;;;14.70;99.90;;;;;;5092816;28;20545;-81
2023/09/04 03:09:55;;;;;;;4.93;4.40;;;14.70;99.90;;;;;;5081587;28;20544;-81
2023/09/04 03:12:23;;;;;;;4.53;4.13;;;14.70;99.90;;;;;;5077557;28;20913;-81
2023/09/04 03:14:55;;;;;;;6.13;4.30;;;14.60;99.90;;;;;;5057586;28;20456;-80
2023/09/04 03:17:22;;;;;;;5.43;4.70;;;14.60;99.90;;;;;;5092957;28;20444;-81
2023/09/04 03:19:50;;;;;;;5.43;4.10;;;14.60;99.90;;;;;;5077330;28;20832;-79
2023/09/04 03:22:17;;;;;;;4.57;4.07;;;14.60;99.90;;;;;;5093490;28;20469;-81
2023/09/04 03:24:44;;;;;;;6.60;4.77;;;14.60;99.90;;;;;;5082048;28;20463;-81
2023/09/04 03:27:11;;;;;;;4.60;4.20;;;14.50;99.90;;;;;;5075355;28;20536;-81
2023/09/04 03:29:38;;;;;;;6.30;4.03;;;14.60;99.90;;;;;;5077524;28;20447;-81
2023/09/04 03:32:06;;;;;;;4.80;4.33;;;14.50;99.90;;;;;;5076416;28;20500;-80
2023/09/04 03:34:32;;;;;;;6.30;4.00;;;14.50;99.90;;;;;;5079069;28;20454;-81
2023/09/04 03:37:00;;;;;;;5.00;4.30;;;14.50;99.90;;;;;;5075973;28;20526;-81
2023/09/04 03:39:27;;;;;;;4.67;3.50;;;14.50;99.90;;;;;;5096688;28;20446;-80
2023/09/04 03:41:54;;;;;;;6.30;4.53;;;14.50;99.90;;;;;;5077520;28;20463;-81
2023/09/04 03:44:21;;;;;;;4.40;3.80;;;14.50;99.90;;;;;;5083911;28;20471;-81
2023/09/04 03:46:48;;;;;;;3.83;3.40;;;14.50;99.90;;;;;;5085989;28;20456;-81
2023/09/04 03:49:15;;;;;;;6.60;4.90;;;14.40;99.90;;;;;;5076393;28;20795;-81
2023/09/04 03:51:42;;;;;;;9.83;4.67;;;14.40;99.90;;;;;;5073030;28;20497;-80
2023/09/04 03:54:10;;;;;;;5.97;4.63;;;14.40;99.90;;;;;;5077165;28;20458;-81
2023/09/04 03:56:37;;;;;;;5.13;4.57;;;14.40;99.90;;;;;;5087800;28;20965;-81
2023/09/04 03:59:04;;;;;;;4.40;4.00;;;14.40;99.90;;;;;;5097378;28;20824;-81
2023/09/04 04:01:31;;;;;;;6.33;4.70;;;14.40;99.90;;;;;;5081340;28;20471;-80
2023/09/04 04:03:58;;;;;;;5.27;4.63;;;14.40;99.90;;;;;;5074707;28;21043;-81
2023/09/04 04:06:25;;;;;;;4.83;4.40;;;14.40;99.90;;;;;;5076884;28;20453;-82
2023/09/04 04:08:54;;;;;;;5.13;4.63;;;14.30;99.90;;;;;;5082454;28;20451;-81
2023/09/04 04:11:22;;;;;;;5.70;4.63;;;14.30;99.90;;;;;;5082851;28;20498;-82
2023/09/04 04:13:49;;;;;;;4.63;4.13;;;14.30;99.90;;;;;;5075425;28;20957;-82
2023/09/04 04:16:16;;;;;;;5.17;4.43;;;14.30;99.90;;;;;;5076452;28;20447;-82
2023/09/04 04:18:43;;;;;;;5.47;4.70;;;14.30;99.90;;;;;;5077136;28;20546;-82
2023/09/04 04:21:10;;;;;;;5.10;4.60;;;14.30;99.90;;;;;;5070305;28;20477;-82
2023/09/04 04:23:37;;;;;;;5.90;5.30;;;14.30;99.90;;;;;;5072535;28;20481;-81
2023/09/04 04:26:04;;;;;;;5.00;4.50;;;14.30;99.90;;;;;;5073982;28;20466;-82
2023/09/04 04:28:32;;;;;;;5.50;4.70;;;14.20;99.90;;;;;;5076804;28;20449;-80
2023/09/04 04:31:01;;;;;;;6.80;4.80;;;14.20;99.90;;;;;;5075386;28;20481;-80
2023/09/04 04:33:28;;;;;;;7.10;5.50;;;14.20;99.90;;;;;;5115890;22;20489;-83
2023/09/04 04:35:55;;;;;;;5.50;4.77;;;14.20;99.90;;;;;;5100671;28;20448;-84
2023/09/04 04:38:22;;;;;;;5.20;4.70;;;14.20;99.90;;;;;;5102013;28;20537;-85
2023/09/04 04:40:49;;;;;;;4.83;4.13;;;14.20;99.90;;;;;;5101312;28;20534;-84
2023/09/04 04:43:15;;;;;;;6.37;5.27;;;14.20;99.90;;;;;;5100794;28;20476;-84
2023/09/04 04:45:44;;;;;;;5.47;4.63;;;14.20;99.90;;;;;;5083271;28;20453;-83
2023/09/04 04:48:10;;;;;;;5.73;4.63;;;14.20;99.90;;;;;;5081649;28;20536;-85
2023/09/04 04:50:37;;;;;;;5.90;5.30;;;14.10;99.90;;;;;;5095860;28;20530;-83
2023/09/04 04:53:04;;;;;;;6.60;5.43;;;14.20;99.90;;;;;;5107311;28;20523;-84
2023/09/04 04:55:31;;;;;;;8.13;5.27;;;14.20;99.90;;;;;;5093982;28;20485;-82
2023/09/04 04:57:58;;;;;;;6.03;5.53;;;14.10;99.90;;;;;;5099273;28;20445;-83
2023/09/04 05:00:25;;;;;;;5.80;4.70;;;14.10;99.90;;;;;;5103147;28;20508;-84
2023/09/04 05:02:53;;;;;;;6.40;5.40;;;14.10;99.90;;;;;;5109308;28;20481;-82
2023/09/04 05:05:20;;;;;;;5.80;4.90;;;14.10;99.90;;;;;;5097891;28;20475;-82
2023/09/04 05:07:47;;;;;;;8.13;5.80;;;14.10;99.90;;;;;;5090018;28;20556;-85
2023/09/04 05:10:14;;;;;;;6.80;6.20;;;14.20;99.90;;;;;;5089750;28;20451;-82
2023/09/04 05:12:40;;;;;;;5.83;5.23;;;14.20;99.90;;;;;;5091812;28;21009;-82
2023/09/04 05:15:08;;;;;;;6.20;5.33;;;14.20;99.90;;;;;;5090918;28;20457;-83
2023/09/04 05:17:35;;;;;;;7.23;5.70;;;14.20;99.90;;;;;;5088620;28;20507;-84
2023/09/04 05:20:05;;;;;;;6.83;6.13;;;14.20;99.90;;;;;;5087745;28;20446;-82
2023/09/04 05:22:32;;;;;;;5.80;5.13;;;14.20;99.90;;;;;;5086490;28;20917;-83
2023/09/04 05:24:59;;;;;;;6.23;5.53;;;14.30;99.90;;;;;;5093945;28;20448;-84
2023/09/04 05:27:26;;;;;;;7.53;5.80;;;14.30;99.90;;;;;;5089486;28;20519;-83
2023/09/04 05:29:55;;;;;;;6.90;5.30;;;14.30;99.90;;;;;;5092293;28;20466;-83
2023/09/04 05:32:22;;;;;;;7.53;5.80;;;14.30;99.90;;;;;;5098881;28;20745;-84
2023/09/04 05:34:53;;;;;;;7.67;5.70;;;14.30;99.90;;;;;;5102547;28;20527;-85
2023/09/04 05:37:22;;;;;;;6.23;5.63;;;14.30;99.90;;;;;;5100165;28;20516;-87
2023/09/04 05:39:49;;;;;;;8.30;5.90;;;14.30;99.90;;;;;;5101335;28;20520;-83
2023/09/04 05:42:16;;;;;;;9.23;6.40;;;14.40;99.90;;;;;;5092214;28;20468;-86
2023/09/04 05:44:42;;;;;;;7.13;5.67;;;14.40;99.90;;;;;;5081033;28;20528;-82
2023/09/04 05:47:09;;;;;;;8.00;6.13;;;14.40;99.90;;;;;;5096932;28;20466;-82
2023/09/04 05:49:36;;;;;;;6.67;5.97;;;14.50;99.90;;;;;;5094431;28;20737;-82
2023/09/04 05:52:03;;;;;;;6.43;5.60;;;14.50;99.90;;;;;;5094812;28;21000;-84
2023/09/04 05:54:31;;;;;;;8.87;6.73;;;14.60;99.90;;;;;;5097388;28;20479;-82
2023/09/04 05:56:58;;;;;;;8.50;7.60;;;14.60;99.90;;;;;;5096036;28;20961;-83
2023/09/04 05:59:27;;;;;;;8.10;7.27;;;14.60;99.90;;;;;;5091677;28;20527;-84
2023/09/04 06:01:54;;;;;;;12.40;11.10;;;14.70;99.90;;;;;;5085130;28;20944;-81
2023/09/04 06:04:21;;;;;;;14.00;11.77;;;14.70;99.90;;;;;;5097436;28;20447;-83
2023/09/04 06:06:48;;;;;;;14.07;11.50;;;14.80;99.90;;;;;;5092099;28;20534;-80
2023/09/04 06:09:15;;;;;;;15.77;10.23;;;14.80;99.90;;;;;;5100056;28;20462;-86
2023/09/04 06:11:44;;;;;;;13.40;10.47;;;14.80;99.90;;;;;;5098743;28;20477;-83
2023/09/04 06:14:11;;;;;;;13.87;10.30;;;14.90;99.90;;;;;;5099308;28;20463;-83
2023/09/04 06:16:38;;;;;;;11.10;9.40;;;15.00;99.90;;;;;;5098219;28;20446;-85
2023/09/04 06:19:05;;;;;;;13.90;9.37;;;15.00;99.90;;;;;;5100710;28;20558;-86
2023/09/04 06:21:31;;;;;;;11.17;8.90;;;15.10;99.90;;;;;;5098124;28;20711;-83
2023/09/04 06:23:58;;;;;;;11.57;8.30;;;15.10;99.90;;;;;;5092439;28;20483;-84
2023/09/04 06:26:25;;;;;;;11.03;8.43;;;15.20;99.90;;;;;;5091688;28;20546;-83
2023/09/04 06:28:53;;;;;;;8.20;7.40;;;15.20;99.90;;;;;;5097384;28;20545;-85
2023/09/04 06:31:21;;;;;;;9.40;8.07;;;15.30;99.90;;;;;;5095635;28;20490;-82
2023/09/04 06:33:48;;;;;;;10.03;7.80;;;15.30;99.90;;;;;;5098829;28;20521;-82
2023/09/04 06:36:15;;;;;;;11.80;7.50;;;15.40;99.90;;;;;;5095881;28;20537;-84
2023/09/04 06:38:42;;;;;;;9.03;7.10;;;15.40;99.90;;;;;;5093386;28;20484;-82
2023/09/04 06:41:09;;;;;;;8.70;7.80;;;15.50;99.90;;;;;;5091123;28;20465;-83
2023/09/04 06:43:35;;;;;;;10.60;7.03;;;15.50;99.90;;;;;;5093188;28;20463;-83
2023/09/04 06:46:04;;;;;;;7.27;6.50;;;15.60;99.90;;;;;;5094248;28;20505;-82
2023/09/04 06:48:31;;;;;;;10.03;7.00;;;15.70;99.90;;;;;;5095183;28;20464;-81
2023/09/04 06:50:59;;;;;;;7.37;6.57;;;15.80;99.90;;;;;;5099118;28;20533;-82
2023/09/04 06:53:26;;;;;;;10.20;6.77;;;15.80;99.90;;;;;;5092462;28;20491;-82
2023/09/04 06:55:53;;;;;;;6.73;5.27;;;15.90;99.90;;;;;;5089085;28;20994;-82
2023/09/04 06:58:20;;;;;;;11.10;6.83;;;16.00;99.90;;;;;;5093726;28;20454;-82
2023/09/04 07:00:47;;;;;;;9.93;6.30;;;16.00;99.90;;;;;;5091732;28;20460;-83
2023/09/04 07:03:15;;;;;;;7.80;4.97;;;16.10;99.90;;;;;;5098164;28;20461;-83
2023/09/04 07:05:42;;;;;;;6.90;4.80;;;16.20;99.90;;;;;;5096223;28;20458;-84
2023/09/04 07:08:08;;;;;;;5.80;4.13;;;16.20;99.90;;;;;;5097321;28;20635;-83
2023/09/04 07:10:36;;;;;;;6.33;4.40;;;16.30;99.90;;;;;;5096119;28;20899;-83
2023/09/04 07:13:04;;;;;;;5.87;4.90;;;16.30;99.90;;;;;;5096450;28;20493;-82
2023/09/04 07:15:31;;;;;;;5.70;4.70;;;16.40;99.90;;;;;;5092999;28;20492;-83
2023/09/04 07:17:59;;;;;;;4.57;4.00;;;16.50;99.90;;;;;;5089828;28;20445;-85
2023/09/04 07:20:27;;;;;;;6.07;4.80;;;16.60;99.90;;;;;;5091370;28;20465;-82
2023/09/04 07:22:54;;;;;;;10.30;5.20;;;16.60;99.90;;;;;;5095745;28;20839;-83
2023/09/04 07:25:21;;;;;;;7.77;4.40;;;16.70;99.90;;;;;;5095455;28;20513;-85
2023/09/04 07:27:48;;;;;;;6.97;3.80;;;16.80;99.90;;;;;;5095011;28;20463;-84
2023/09/04 07:30:15;;;;;;;5.10;4.00;;;16.90;99.90;;;;;;5093904;28;20449;-82
2023/09/04 07:32:42;;;;;;;8.00;4.73;;;17.00;99.90;;;;;;5089696;28;20566;-82
2023/09/04 07:35:10;;;;;;;7.10;4.87;;;17.10;99.90;;;;;;5090098;28;20467;-84
2023/09/04 07:37:38;;;;;;;6.47;4.47;;;17.20;99.90;;;;;;5091315;28;20477;-83
2023/09/04 07:40:06;;;;;;;8.57;4.70;;;17.30;99.90;;;;;;5092780;28;20528;-83
2023/09/04 07:42:33;;;;;;;5.73;4.83;;;17.30;99.90;;;;;;5091945;28;20468;-82
2023/09/04 07:44:59;;;;;;;6.70;4.47;;;17.40;99.90;;;;;;5091807;28;20455;-82
2023/09/04 07:47:26;;;;;;;6.17;4.10;;;17.50;99.90;;;;;;5092793;28;20998;-82
2023/09/04 07:49:54;;;;;;;5.33;4.23;;;17.60;99.90;;;;;;5085773;28;20559;-82
2023/09/04 07:52:21;;;;;;;6.33;4.77;;;17.60;99.90;;;;;;5088265;28;20548;-84
2023/09/04 07:54:50;;;;;;;6.00;4.90;;;17.70;99.90;;;;;;5093998;28;20459;-82
2023/09/04 07:57:17;;;;;;;5.73;4.47;;;17.80;99.90;;;;;;5084600;28;20465;-84
2023/09/04 07:59:44;;;;;;;6.77;4.20;;;17.80;99.90;;;;;;5089315;28;21023;-84
2023/09/04 08:02:11;;;;;;;5.70;4.77;;;17.90;99.90;;;;;;5093661;28;20499;-83
2023/09/04 08:04:38;;;;;;;6.20;4.27;;;18.00;99.90;;;;;;5092327;28;20517;-83
2023/09/04 08:07:05;;;;;;;4.67;4.17;;;18.00;99.90;;;;;;5095122;28;20535;-82
2023/09/04 08:09:31;;;;;;;7.37;4.77;;;18.10;99.90;;;;;;5098288;28;20453;-82
2023/09/04 08:12:00;;;;;;;10.30;4.80;;;18.20;99.90;;;;;;5099019;28;20536;-84
2023/09/04 08:14:30;;;;;;;8.03;4.93;;;18.30;99.90;;;;;;5101064;28;20442;-87
2023/09/04 08:16:57;;;;;;;6.97;4.70;;;18.40;99.90;;;;;;5095931;28;20537;-85
2023/09/04 08:19:24;;;;;;;8.93;5.10;;;18.50;99.90;;;;;;5100680;28;20511;-83
2023/09/04 08:21:51;;;;;;;6.50;4.30;;;18.50;99.90;;;;;;5084164;28;20532;-85
2023/09/04 08:24:18;;;;;;;5.10;4.13;;;18.60;99.90;;;;;;5100571;28;20955;-84
2023/09/04 08:26:45;;;;;;;5.10;4.30;;;18.70;99.90;;;;;;5097865;28;20471;-85
2023/09/04 08:29:13;;;;;;;6.23;4.20;;;18.70;99.90;;;;;;5095430;28;20461;-85
2023/09/04 08:31:40;;;;;;;6.50;3.43;;;18.80;99.90;;;;;;5097068;28;20464;-85
2023/09/04 08:34:06;;;;;;;5.87;3.57;;;18.90;99.90;;;;;;5095242;28;20520;-83
2023/09/04 08:36:33;;;;;;;6.03;3.87;;;19.00;99.90;;;;;;5092458;28;20458;-84
2023/09/04 08:39:00;;;;;;;5.80;4.10;;;19.10;99.90;;;;;;5098022;28;20456;-82
2023/09/04 08:41:28;;;;;;;5.77;4.13;;;19.20;99.90;;;;;;5102676;28;20532;-81
2023/09/04 08:43:56;;;;;;;4.90;3.73;;;19.40;99.90;;;;;;5091705;28;20982;-82
2023/09/04 08:46:29;;;;;;;4.20;3.67;;;19.60;99.90;;;;;;5094377;28;20485;-83
2023/09/04 08:49:00;;;;;;;5.40;3.70;;;19.80;99.90;;;;;;5096349;28;20502;-85
2023/09/04 08:51:27;;;;;;;5.23;4.10;;;19.90;99.90;;;;;;5101760;28;20521;-84
2023/09/04 08:53:55;;;;;;;4.50;3.90;;;20.00;99.90;;;;;;5096119;28;20482;-84
2023/09/04 08:56:23;;;;;;;5.10;3.77;;;20.10;99.90;;;;;;5095927;28;20450;-84
2023/09/04 08:58:50;;;;;;;6.23;3.57;;;20.20;99.90;;;;;;5098579;28;20817;-82
2023/09/04 09:01:18;;;;;;;5.67;3.80;;;20.20;99.90;;;;;;5099453;28;20529;-83
2023/09/04 09:03:47;;;;;;;6.20;3.67;;;20.30;99.90;;;;;;5098639;28;20592;-83
2023/09/04 09:06:13;;;;;;;7.80;3.97;;;20.40;99.90;;;;;;5097725;28;20460;-84
2023/09/04 09:08:44;;;;;;;3.90;3.13;;;20.40;99.90;;;;;;5098078;28;20460;-82
2023/09/04 09:11:13;;;;;;;5.83;3.10;;;20.50;99.90;;;;;;5098855;28;21326;-86
2023/09/04 09:13:40;;;;;;;3.70;3.13;;;20.60;99.90;;;;;;5099968;28;20493;-85
2023/09/04 09:16:07;;;;;;;4.23;3.50;;;20.70;99.90;;;;;;5098292;28;20909;-87
2023/09/04 09:18:35;;;;;;;4.03;3.00;;;20.80;99.90;;;;;;5100768;28;20446;-84
2023/09/04 09:21:22;;;;;;;3.50;3.10;;;20.90;99.90;;;;;;5100968;28;20454;-83
2023/09/04 09:23:49;;;;;;;6.00;3.60;;;21.00;99.90;;;;;;5095067;28;21014;-84
2023/09/04 09:26:16;;;;;;;4.43;2.83;;;21.20;99.90;;;;;;5098934;28;20467;-83
2023/09/04 09:28:44;;;;;;;4.80;3.30;;;21.30;99.90;;;;;;5099950;28;20466;-82
2023/09/04 09:31:12;;;;;;;3.40;3.03;;;21.40;99.90;;;;;;5100216;28;20956;-84
2023/09/04 09:33:40;;;;;;;3.70;3.30;;;21.60;99.90;;;;;;5095931;28;20481;-84
2023/09/04 09:36:13;;;;;;;4.63;3.10;;;21.80;99.90;;;;;;5098709;28;20434;-83
2023/09/04 09:38:45;;;;;;;3.50;2.97;;;22.00;99.90;;;;;;5098859;28;20449;-85
2023/09/04 09:41:12;;;;;;;3.70;3.30;;;22.20;99.90;;;;;;5099966;28;20454;-84
2023/09/04 09:43:39;;;;;;;3.10;2.50;;;22.40;99.90;;;;;;5096904;28;20470;-84
2023/09/04 09:46:08;;;;;;;3.30;2.47;;;22.60;99.90;;;;;;5094720;28;20486;-85
2023/09/04 09:48:36;;;;;;;3.43;2.90;;;22.90;99.90;;;;;;5096797;28;20801;-84
2023/09/04 09:51:03;;;;;;;3.70;3.30;;;23.10;99.90;;;;;;5091665;28;20550;-83
2023/09/04 09:53:44;;;;;;;4.07;2.73;;;23.40;99.90;;;;;;5094699;28;20553;-82
2023/09/04 09:56:13;;;;;;;4.13;3.07;;;23.60;99.90;;;;;;5094476;28;20439;-84
2023/09/04 09:58:42;;;;;;;3.67;2.50;;;23.90;99.90;;;;;;5095927;28;20450;-84
2023/09/04 10:01:10;;;;;;;3.60;2.57;;;24.10;99.90;;;;;;5097922;28;20450;-82
2023/09/04 10:03:38;;;;;;;3.13;2.23;;;24.40;99.90;;;;;;5094193;28;20472;-80
2023/09/04 10:06:08;;;;;;;4.37;3.00;;;24.60;99.90;;;;;;5096457;28;20458;-82
2023/09/04 10:08:39;;;;;;;5.23;2.50;;;24.90;99.90;;;;;;5095869;28;20438;-81
2023/09/04 10:11:11;;;;;;;3.20;2.43;;;25.10;99.90;;;;;;5094702;28;20533;-79
2023/09/04 10:13:43;;;;;;;4.70;2.20;;;25.30;99.90;;;;;;5096394;28;20998;-84
2023/09/04 10:16:16;;;;;;;2.40;1.80;;;25.50;99.90;;;;;;5098062;28;20449;-84
2023/09/04 10:18:49;;;;;;;5.07;2.80;;;25.60;99.90;;;;;;5093123;28;20468;-82
2023/09/04 10:21:20;;;;;;;3.13;2.00;;;25.70;99.90;;;;;;5100228;28;20450;-84
2023/09/04 10:23:53;;;;;;;3.73;2.30;;;25.90;99.90;;;;;;5098478;28;20474;-82
2023/09/04 10:26:27;;;;;;;3.17;1.87;;;26.00;99.90;;;;;;5100514;28;20883;-82
2023/09/04 10:29:03;;;;;;;2.30;1.70;;;26.20;99.90;;;;;;5091446;28;20481;-83
2023/09/04 10:31:32;;;;;;;2.53;1.80;;;26.20;99.90;;;;;;5097815;28;20507;-83
2023/09/04 10:33:59;;;;;;;5.23;1.97;;;26.30;99.90;;;;;;5089004;22;20495;-83
2023/09/04 10:36:27;;;;;;;3.43;1.63;;;26.40;99.90;;;;;;5053721;28;20519;-82
2023/09/04 10:38:54;;;;;;;2.20;1.60;;;26.60;99.90;;;;;;5054363;28;20543;-82
2023/09/04 10:41:23;;;;;;;3.27;1.73;;;26.50;99.90;;;;;;5057421;28;20447;-85
2023/09/04 10:43:50;;;;;;;3.73;1.93;;;26.80;99.90;;;;;;5057584;28;20494;-84
2023/09/04 10:46:16;;;;;;;2.70;1.40;;;27.00;99.90;;;;;;5054210;28;20526;-85
2023/09/04 10:48:44;;;;;;;2.83;1.43;;;27.20;99.90;;;;;;5056157;28;20959;-85
2023/09/04 10:51:31;;;;;;;2.70;1.60;;;27.40;99.90;;;;;;5056101;28;20490;-83
2023/09/04 10:54:00;;;;;;;2.67;1.77;;;27.40;99.90;;;;;;5052281;28;20500;-84
2023/09/04 10:56:29;;;;;;;5.77;2.23;;;27.50;99.90;;;;;;5054650;28;20455;-85
2023/09/04 10:58:59;;;;;;;3.50;1.90;;;27.50;99.90;;;;;;5057088;28;20452;-83
2023/09/04 11:01:35;;;;;;;3.10;1.40;;;27.60;99.90;;;;;;5056430;28;20569;-82
2023/09/04 11:04:03;;;;;;;2.70;1.40;;;27.70;99.90;;;;;;5056322;28;20564;-83
2023/09/04 11:06:30;;;;;;;2.00;1.43;;;27.80;99.90;;;;;;5054127;28;20979;-84
2023/09/04 11:09:02;;;;;;;2.63;1.90;;;27.90;99.90;;;;;;5055094;28;20946;-83
2023/09/04 11:11:30;;;;;;;3.03;2.00;;;28.00;99.90;;;;;;5056697;28;20494;-83
2023/09/04 11:13:59;;;;;;;3.43;1.60;;;28.10;99.90;;;;;;5056661;28;20491;-84
2023/09/04 11:16:26;;;;;;;2.37;1.50;;;28.30;97.10;;;;;;5055604;28;20480;-85
2023/09/04 11:19:08;;;;;;;2.50;1.60;;;28.40;99.90;;;;;;5056856;28;20456;-84
2023/09/04 11:21:36;;;;;;;2.93;1.50;;;28.40;99.90;;;;;;5056426;28;20516;-84
2023/09/04 11:24:04;;;;;;;5.30;2.07;;;28.50;99.90;;;;;;5057500;28;20478;-84
2023/09/04 11:26:32;;;;;;;3.80;1.90;;;28.50;99.90;;;;;;5055021;28;20880;-84
2023/09/04 11:29:01;;;;;;;4.33;1.73;;;28.60;99.90;;;;;;5055866;28;20463;-84
2023/09/04 11:31:28;;;;;;;3.07;1.73;;;28.70;99.90;;;;;;5054678;28;20526;-82
2023/09/04 11:33:56;;;;;;;3.70;2.30;;;28.50;99.90;;;;;;5052996;28;20522;-84
2023/09/04 11:36:24;;;;;;;2.97;1.83;;;28.70;99.90;;;;;;5060751;28;20483;-84
2023/09/04 11:39:04;;;;;;;4.03;2.00;;;28.80;99.90;;;;;;5057882;28;20452;-85
2023/09/04 11:41:32;;;;;;;2.73;2.17;;;29.10;92.90;;;;;;5059226;28;20456;-84
2023/09/04 11:44:00;;;;;;;3.93;2.60;;;29.20;94.50;;;;;;5053931;28;20570;-80
2023/09/04 11:46:28;;;;;;;3.53;2.13;;;29.30;99.90;;;;;;5054741;28;20467;-81
2023/09/04 11:48:54;;;;;;;4.33;2.27;;;29.40;99.90;;;;;;5055776;28;20448;-84
2023/09/04 11:51:21;;;;;;;2.50;1.60;;;29.40;99.60;;;;;;5054450;28;20454;-82
2023/09/04 11:53:48;;;;;;;4.63;1.70;;;29.50;96.80;;;;;;5054934;28;20559;-84
2023/09/04 11:56:15;;;;;;;3.17;1.77;;;29.70;92.80;;;;;;5055252;28;20459;-84
2023/09/04 11:58:43;;;;;;;3.67;2.27;;;29.80;92.80;;;;;;5056869;28;20497;-83
2023/09/04 12:01:10;;;;;;;3.63;2.00;;;29.90;92.60;;;;;;5056604;28;20451;-82
2023/09/04 12:03:37;;;;;;;3.83;1.80;;;30.00;93.20;;;;;;5055590;28;20478;-85
2023/09/04 12:06:04;;;;;;;2.90;2.00;;;30.10;86.60;;;;;;5053641;28;20470;-83
2023/09/04 12:08:31;;;;;;;2.23;1.67;;;30.10;91.60;;;;;;5051932;28;20444;-85
2023/09/04 12:10:58;;;;;;;2.70;1.70;;;30.30;90.60;;;;;;5055185;28;20547;-83
2023/09/04 12:13:24;;;;;;;3.63;2.10;;;30.40;89.80;;;;;;5055242;28;20499;-83
2023/09/04 12:15:53;;;;;;;2.87;1.67;;;30.30;88.20;;;;;;5055622;28;20452;-84
2023/09/04 12:18:22;;;;;;;3.30;1.70;;;30.40;91.20;;;;;;5054988;28;20556;-83
2023/09/04 12:20:49;;;;;;;2.50;1.73;;;30.50;92.00;;;;;;5053945;28;20455;-82
2023/09/04 12:23:16;;;;;;;3.60;1.97;;;30.60;89.50;;;;;;5057476;28;20456;-84
2023/09/04 12:25:45;;;;;;;2.73;1.47;;;30.70;87.00;;;;;;5053535;28;20539;-83
2023/09/04 12:28:13;;;;;;;3.27;1.80;;;31.00;88.40;;;;;;5054917;28;20466;-82
2023/09/04 12:30:44;;;;;;;2.90;1.73;;;31.10;88.50;;;;;;5052748;28;20466;-83
2023/09/04 12:33:13;;;;;;;2.80;1.87;;;31.10;87.20;;;;;;5054484;28;20490;-85
2023/09/04 12:35:41;;;;;;;2.90;1.63;;;31.00;89.60;;;;;;5055440;28;20569;-83
2023/09/04 12:38:08;;;;;;;2.80;2.07;;;31.10;83.10;;;;;;5056512;28;20502;-84
2023/09/04 12:40:35;;;;;;;3.10;1.90;;;30.90;85.60;;;;;;5057312;28;20452;-84
2023/09/04 12:43:03;;;;;;;2.77;2.10;;;30.80;87.80;;;;;;5056666;28;20476;-84
2023/09/04 12:45:30;;;;;;;3.07;2.30;;;30.90;87.80;;;;;;5055504;28;20470;-82
2023/09/04 12:47:59;;;;;;;3.57;2.10;;;31.00;87.20;;;;;;5055728;28;20482;-84